Time;durP1;ratioP1;P1;durP2;ratioP2;P2;SDS_P1;SDS_P2;PMS_P1;PMS_P2;Temp;Humidity;BMP_temperature;BMP_pressure;BME280_temperature;BME280_humidity;BME280_pressure;Samples;Min_cycle;Max_cycle;Signal;HPM_P1;HPM_P2
2022/01/23 00:00:34;;;;;;;17.45;12.35;;;6.30;96.20;;;;;;2092901;28;20064;-89
2022/01/23 00:01:41;;;;;;;19.88;13.45;;;6.30;96.20;;;;;;2104194;28;20121;-90
2022/01/23 00:02:46;;;;;;;19.65;13.18;;;6.30;96.20;;;;;;2097875;28;20033;-89
2022/01/23 00:03:47;;;;;;;18.73;12.82;;;6.30;96.20;;;;;;2080211;28;20037;-89
2022/01/23 00:04:48;;;;;;;19.08;13.02;;;6.30;96.50;;;;;;2073766;28;20034;-89
2022/01/23 00:05:51;;;;;;;20.58;13.52;;;6.30;96.20;;;;;;2089607;28;20064;-88
2022/01/23 00:06:52;;;;;;;21.42;14.13;;;6.30;96.20;;;;;;2085467;28;20036;-89
2022/01/23 00:07:52;;;;;;;20.67;14.07;;;6.30;96.20;;;;;;2081306;28;20040;-89
2022/01/23 00:08:53;;;;;;;20.83;13.50;;;6.30;96.20;;;;;;2089609;28;20454;-89
2022/01/23 00:09:54;;;;;;;23.02;14.68;;;6.30;96.30;;;;;;2077621;28;20034;-89
2022/01/23 00:10:55;;;;;;;22.50;14.52;;;6.40;96.30;;;;;;2084385;28;20091;-89
2022/01/23 00:11:58;;;;;;;21.45;14.23;;;6.40;96.30;;;;;;2089234;28;20033;-89
2022/01/23 00:13:09;;;;;;;21.27;13.75;;;6.30;96.20;;;;;;2089634;28;20029;-89
2022/01/23 00:18:06;;;;;;;19.67;13.40;;;6.30;96.20;;;;;;2090813;28;20052;-89
2022/01/23 00:19:07;;;;;;;20.88;14.35;;;6.30;96.20;;;;;;2081258;28;20052;-89
2022/01/23 00:20:11;;;;;;;21.25;14.65;;;6.40;96.20;;;;;;2079920;28;20407;-89
2022/01/23 00:21:12;;;;;;;22.13;14.65;;;6.30;96.20;;;;;;2088246;28;20124;-88
2022/01/23 00:22:13;;;;;;;21.55;14.23;;;6.30;96.20;;;;;;2080471;28;20040;-89
2022/01/23 00:23:28;;;;;;;21.35;15.10;;;6.40;96.30;;;;;;2086507;28;20519;-89
2022/01/23 00:30:20;;;;;;;22.85;14.73;;;6.30;96.20;;;;;;2097818;28;20037;-89
2022/01/23 00:31:14;;;;;;;22.27;14.90;;;6.40;96.30;;;;;;2100425;28;20070;-89
2022/01/23 00:32:15;;;;;;;21.90;15.02;;;6.30;96.20;;;;;;2086541;28;20025;-89
2022/01/23 00:33:17;;;;;;;20.92;14.63;;;6.40;96.20;;;;;;2075851;28;20038;-89
2022/01/23 00:34:19;;;;;;;23.25;15.90;;;6.30;96.20;;;;;;2095962;28;20103;-89
2022/01/23 00:35:20;;;;;;;24.67;16.23;;;6.30;96.20;;;;;;2081018;28;20133;-89
2022/01/23 00:36:25;;;;;;;23.05;16.23;;;6.30;96.20;;;;;;2080993;28;20048;-89
2022/01/23 00:37:25;;;;;;;22.58;15.90;;;6.30;96.20;;;;;;2088602;28;20041;-89
2022/01/23 00:38:26;;;;;;;21.65;15.77;;;6.30;96.20;;;;;;2087571;28;20033;-89
2022/01/23 00:39:26;;;;;;;23.42;16.52;;;6.30;96.30;;;;;;2100110;28;20066;-89
2022/01/23 00:40:29;;;;;;;23.33;15.60;;;6.30;96.30;;;;;;2089971;28;20037;-89
2022/01/23 00:41:30;;;;;;;23.98;16.30;;;6.30;96.30;;;;;;2081170;28;20030;-89
2022/01/23 00:42:32;;;;;;;24.80;16.33;;;6.30;96.30;;;;;;2095485;28;20482;-89
2022/01/23 00:43:35;;;;;;;24.98;17.73;;;6.30;96.30;;;;;;2089424;28;20032;-89
2022/01/23 00:44:37;;;;;;;24.00;16.23;;;6.30;96.30;;;;;;2073389;28;20034;-89
2022/01/23 00:45:44;;;;;;;25.40;17.63;;;6.30;96.30;;;;;;2081800;28;20033;-89
2022/01/23 00:46:50;;;;;;;24.45;16.33;;;6.30;96.30;;;;;;2088208;28;20033;-89
2022/01/23 00:47:54;;;;;;;22.67;15.57;;;6.30;96.30;;;;;;2090328;28;20071;-89
2022/01/23 00:49:58;;;;;;;26.58;16.63;;;6.30;96.60;;;;;;2075167;28;20504;-90
2022/01/23 00:50:59;;;;;;;25.98;16.52;;;6.30;96.30;;;;;;2089592;28;20135;-87
2022/01/23 00:52:00;;;;;;;23.80;16.38;;;6.30;96.30;;;;;;2079340;28;20083;-89
2022/01/23 00:53:01;;;;;;;24.08;16.23;;;6.30;96.30;;;;;;2073151;28;20048;-89
2022/01/23 00:54:04;;;;;;;23.95;16.67;;;6.30;96.30;;;;;;2080231;28;20061;-88
2022/01/23 00:55:05;;;;;;;25.63;16.95;;;6.30;96.30;;;;;;2086551;28;20049;-89
2022/01/23 00:56:06;;;;;;;23.45;16.90;;;6.30;96.30;;;;;;2087170;28;20060;-89
2022/01/23 00:57:07;;;;;;;23.33;16.30;;;6.40;96.30;;;;;;2081466;28;20038;-89
2022/01/23 00:58:09;;;;;;;22.77;17.02;;;6.30;96.30;;;;;;2072916;28;20496;-88
2022/01/23 00:59:09;;;;;;;22.55;16.88;;;6.30;96.30;;;;;;2072951;28;20104;-89
2022/01/23 01:00:11;;;;;;;23.48;16.83;;;6.30;96.30;;;;;;2080616;28;20406;-89
2022/01/23 01:01:15;;;;;;;23.92;16.02;;;6.30;96.30;;;;;;2080779;28;20495;-88
2022/01/23 01:02:16;;;;;;;26.50;16.95;;;6.30;96.30;;;;;;2081671;28;20042;-89
2022/01/23 01:03:16;;;;;;;23.52;16.35;;;6.40;96.40;;;;;;2089658;28;20055;-89
2022/01/23 01:04:17;;;;;;;23.27;16.58;;;6.40;96.30;;;;;;2089611;28;20045;-90
2022/01/23 01:05:18;;;;;;;24.08;16.25;;;6.30;96.30;;;;;;2083301;28;20119;-89
2022/01/23 01:06:19;;;;;;;22.92;16.92;;;6.30;96.30;;;;;;2086865;28;20115;-89
2022/01/23 01:07:20;;;;;;;24.73;16.65;;;6.30;96.30;;;;;;2082082;28;20054;-89
2022/01/23 01:08:20;;;;;;;25.45;17.67;;;6.30;96.30;;;;;;2081137;28;20061;-89
2022/01/23 01:09:21;;;;;;;25.48;17.20;;;6.30;96.30;;;;;;2073238;28;20084;-89
2022/01/23 01:10:33;;;;;;;25.08;17.38;;;6.30;96.30;;;;;;2082946;28;20147;-89
2022/01/23 01:11:56;;;;;;;25.50;17.85;;;6.30;96.30;;;;;;2089270;28;20029;-89
2022/01/23 01:13:00;;;;;;;22.48;16.08;;;6.30;96.30;;;;;;2086607;28;20124;-89
2022/01/23 01:30:46;;;;;;;22.75;15.50;;;6.30;96.30;;;;;;2085284;28;20076;-89
2022/01/23 01:31:52;;;;;;;21.40;15.18;;;6.30;96.20;;;;;;2083007;28;20153;-88
2022/01/23 01:34:05;;;;;;;21.35;16.05;;;6.30;96.20;;;;;;2072183;28;20070;-89
2022/01/23 01:35:17;;;;;;;23.95;16.25;;;6.30;96.30;;;;;;2082747;28;20537;-89
2022/01/23 01:36:27;;;;;;;20.75;14.88;;;6.30;96.30;;;;;;2085457;28;20057;-89
2022/01/23 01:37:28;;;;;;;22.02;15.35;;;6.30;96.30;;;;;;2072112;28;20038;-89
2022/01/23 01:38:29;;;;;;;23.10;16.23;;;6.30;96.30;;;;;;2074090;28;20037;-89
2022/01/23 01:39:29;;;;;;;23.27;15.70;;;6.20;96.30;;;;;;2072542;28;20512;-89
2022/01/23 01:40:30;;;;;;;23.83;16.25;;;6.20;96.30;;;;;;2079585;28;20519;-89
2022/01/23 01:41:35;;;;;;;23.02;16.17;;;6.30;96.30;;;;;;2080995;28;20034;-89
2022/01/23 01:42:35;;;;;;;23.83;16.48;;;6.30;96.30;;;;;;2080541;28;20036;-88
2022/01/23 01:43:36;;;;;;;24.63;16.83;;;6.30;96.30;;;;;;2083469;28;20064;-88
2022/01/23 01:44:37;;;;;;;22.35;16.02;;;6.30;96.30;;;;;;2082229;28;20504;-89
2022/01/23 01:45:40;;;;;;;23.08;16.42;;;6.30;96.30;;;;;;2084142;28;20480;-89
2022/01/23 01:46:41;;;;;;;24.58;16.60;;;6.30;96.30;;;;;;2094342;28;20052;-88
2022/01/23 01:47:50;;;;;;;23.23;16.83;;;6.20;96.30;;;;;;2083158;28;20579;-89
2022/01/23 01:48:50;;;;;;;26.52;16.88;;;6.30;96.30;;;;;;2074770;28;20038;-89
2022/01/23 01:49:51;;;;;;;23.17;17.30;;;6.30;96.60;;;;;;2100461;28;20068;-89
2022/01/23 01:50:54;;;;;;;24.20;17.08;;;6.20;96.30;;;;;;2101508;28;20139;-89
2022/01/23 01:51:58;;;;;;;23.75;17.05;;;6.20;96.60;;;;;;2094888;28;20025;-89
2022/01/23 01:53:00;;;;;;;23.92;16.33;;;6.20;96.30;;;;;;2095625;28;20048;-89
2022/01/23 01:54:10;;;;;;;26.58;17.35;;;6.20;96.30;;;;;;2095161;28;20028;-89
2022/01/23 01:55:15;;;;;;;;;;;6.20;96.30;;;;;;2078814;28;20064;-89
2022/01/23 01:56:16;;;;;;;22.92;15.23;;;6.20;96.40;;;;;;2077564;28;19912;-88
2022/01/23 01:57:16;;;;;;;25.75;16.73;;;6.20;96.40;;;;;;2082844;28;20111;-89
2022/01/23 02:00:55;;;;;;;25.52;16.80;;;6.20;96.40;;;;;;2091421;28;20491;-89
2022/01/23 02:09:11;;;;;;;26.13;16.70;;;6.10;96.40;;;;;;2079406;28;20077;-89
2022/01/23 02:10:11;;;;;;;23.00;16.00;;;6.20;96.40;;;;;;2085808;28;20041;-89
2022/01/23 02:11:18;;;;;;;24.10;16.17;;;6.10;96.40;;;;;;2088540;28;20037;-89
2022/01/23 02:13:45;;;;;;;25.45;16.23;;;6.20;96.40;;;;;;2095461;28;20043;-89
2022/01/23 02:17:27;;;;;;;23.42;16.63;;;6.20;96.40;;;;;;2087877;28;20495;-88
2022/01/23 02:50:53;;;;;;;21.70;15.75;;;6.10;96.40;;;;;;2097329;28;20055;-89
2022/01/23 02:55:21;;;;;;;25.58;16.50;;;6.10;96.40;;;;;;2094068;28;20136;-88
2022/01/23 02:56:32;;;;;;;25.45;17.00;;;6.10;96.40;;;;;;2091300;28;20153;-89
2022/01/23 02:57:57;;;;;;;23.80;16.60;;;6.10;96.40;;;;;;2102715;28;20040;-89
2022/01/23 02:58:59;;;;;;;;;;;6.10;96.40;;;;;;2101960;28;20041;-89
2022/01/23 03:00:00;;;;;;;22.98;15.20;;;6.10;96.40;;;;;;2095465;28;19963;-89
2022/01/23 03:01:15;;;;;;;21.95;15.57;;;6.10;96.40;;;;;;2095651;28;20045;-89
2022/01/23 03:02:36;;;;;;;23.65;15.93;;;6.10;96.40;;;;;;2092856;28;20032;-89
2022/01/23 03:03:42;;;;;;;22.75;15.80;;;6.10;96.40;;;;;;2082248;28;20040;-89
2022/01/23 03:04:51;;;;;;;22.73;15.85;;;6.10;96.40;;;;;;2090389;28;20036;-89
2022/01/23 03:07:30;;;;;;;23.60;15.73;;;6.10;96.40;;;;;;2101894;28;20102;-89
2022/01/23 03:08:54;;;;;;;23.85;16.17;;;6.10;96.40;;;;;;2098199;28;20067;-88
2022/01/23 03:09:57;;;;;;;22.25;15.93;;;6.10;96.40;;;;;;2092966;28;20047;-88
2022/01/23 03:11:05;;;;;;;23.77;15.48;;;6.10;96.40;;;;;;2094528;28;20050;-89
2022/01/23 03:14:47;;;;;;;22.70;15.60;;;6.10;96.40;;;;;;2106776;28;20139;-89
2022/01/23 03:25:28;;;;;;;22.70;15.35;;;6.10;96.50;;;;;;2098725;28;20454;-89
2022/01/23 03:26:49;;;;;;;22.95;15.55;;;6.00;96.50;;;;;;2106342;28;20040;-89
2022/01/23 03:30:21;;;;;;;21.85;15.25;;;6.10;96.50;;;;;;2102693;28;20497;-89
2022/01/23 03:31:26;;;;;;;23.02;16.15;;;6.10;96.50;;;;;;2098492;28;20083;-88
2022/01/23 03:32:34;;;;;;;23.60;16.38;;;6.00;96.50;;;;;;2089042;28;20037;-89
2022/01/23 03:33:36;;;;;;;23.17;15.57;;;6.10;96.60;;;;;;2083091;28;20050;-88
2022/01/23 03:34:37;;;;;;;22.30;15.57;;;6.10;96.60;;;;;;2084584;28;20045;-89
2022/01/23 03:35:38;;;;;;;24.10;16.55;;;6.10;96.60;;;;;;2089711;28;20052;-89
2022/01/23 03:36:39;;;;;;;23.15;16.30;;;6.10;96.60;;;;;;2092138;28;20041;-89
2022/01/23 03:37:39;;;;;;;23.85;16.33;;;6.10;96.60;;;;;;2081622;28;20460;-89
2022/01/23 03:38:41;;;;;;;24.23;16.65;;;6.10;96.80;;;;;;2085857;28;20033;-89
2022/01/23 03:39:41;;;;;;;23.83;16.13;;;6.10;96.60;;;;;;2089680;28;20507;-88
2022/01/23 03:40:42;;;;;;;24.00;17.02;;;6.10;96.60;;;;;;2082549;28;20034;-89
2022/01/23 03:41:44;;;;;;;24.33;17.70;;;6.10;96.60;;;;;;2090338;28;20151;-89
2022/01/23 03:42:48;;;;;;;24.48;17.42;;;6.10;96.60;;;;;;2090351;28;20041;-89
2022/01/23 03:43:52;;;;;;;25.00;17.17;;;6.10;96.60;;;;;;2081564;28;20033;-89
2022/01/23 03:45:39;;;;;;;24.65;16.77;;;6.10;96.60;;;;;;2094083;28;20036;-88
2022/01/23 03:47:37;;;;;;;22.20;14.48;;;6.10;96.50;;;;;;2094413;28;19928;-89
2022/01/23 03:49:44;;;;;;;21.52;15.02;;;6.10;96.50;;;;;;2097970;28;20063;-89
2022/01/23 03:50:47;;;;;;;21.58;14.88;;;6.10;96.50;;;;;;2095252;28;20036;-89
2022/01/23 03:51:47;;;;;;;23.60;16.58;;;6.10;96.50;;;;;;2096329;28;20131;-89
2022/01/23 03:52:48;;;;;;;21.92;15.48;;;6.10;96.50;;;;;;2101895;28;20032;-89
2022/01/23 03:53:49;;;;;;;22.23;16.05;;;6.20;96.60;;;;;;2097533;28;20506;-89
2022/01/23 03:54:49;;;;;;;22.90;15.85;;;6.10;96.50;;;;;;2097868;28;20418;-89
2022/01/23 03:55:51;;;;;;;23.40;16.52;;;6.10;96.50;;;;;;2098068;28;20127;-88
2022/01/23 03:56:54;;;;;;;24.65;16.77;;;6.20;96.60;;;;;;2091394;28;20450;-89
2022/01/23 03:57:55;;;;;;;23.60;16.55;;;6.10;96.50;;;;;;2097278;28;20166;-89
2022/01/23 03:58:56;;;;;;;23.95;16.75;;;6.10;96.50;;;;;;2088274;28;20141;-89
2022/01/23 03:59:57;;;;;;;24.25;16.52;;;6.10;96.50;;;;;;2081216;28;20041;-89
2022/01/23 04:00:57;;;;;;;24.67;17.20;;;6.20;96.60;;;;;;2080669;28;20100;-89
2022/01/23 04:01:59;;;;;;;24.98;16.88;;;6.10;96.50;;;;;;2096776;28;20403;-88
2022/01/23 04:02:59;;;;;;;24.30;16.30;;;6.20;96.60;;;;;;2088873;28;20490;-89
2022/01/23 04:04:04;;;;;;;24.95;17.23;;;6.20;96.60;;;;;;2091991;28;20045;-88
2022/01/23 04:05:05;;;;;;;23.33;16.77;;;6.10;96.60;;;;;;2097827;28;20474;-89
2022/01/23 04:06:05;;;;;;;24.42;17.23;;;6.10;96.60;;;;;;2097560;28;20040;-89
2022/01/23 04:07:14;;;;;;;23.77;16.98;;;6.20;96.60;;;;;;2093005;28;20099;-89
2022/01/23 04:08:16;;;;;;;23.35;16.70;;;6.20;96.60;;;;;;2089057;28;20041;-89
2022/01/23 04:09:16;;;;;;;23.38;16.02;;;6.10;96.60;;;;;;2091882;28;20549;-88
2022/01/23 04:10:20;;;;;;;25.13;16.85;;;6.20;96.60;;;;;;2089697;28;20040;-89
2022/01/23 04:11:20;;;;;;;25.30;16.58;;;6.10;96.60;;;;;;2096074;28;20411;-88
2022/01/23 04:13:49;;;;;;;22.95;15.57;;;6.20;96.60;;;;;;2092433;28;20040;-89
2022/01/23 04:14:57;;;;;;;24.80;16.30;;;6.20;96.60;;;;;;2096605;28;20048;-88
2022/01/23 04:16:16;;;;;;;23.35;15.93;;;6.20;96.60;;;;;;2088961;28;20507;-88
2022/01/23 04:20:45;;;;;;;21.63;15.82;;;6.20;96.60;;;;;;2087970;28;20091;-89
2022/01/23 04:34:53;;;;;;;21.92;15.30;;;6.10;96.50;;;;;;2094044;28;20041;-89
2022/01/23 04:46:56;;;;;;;24.77;15.50;;;6.10;96.50;;;;;;2091090;28;20135;-88
2022/01/23 04:59:35;;;;;;;22.15;15.05;;;6.10;96.50;;;;;;2094005;28;20095;-89
2022/01/23 05:00:47;;;;;;;21.67;15.23;;;6.10;96.50;;;;;;2090498;28;20175;-89
2022/01/23 05:04:19;;;;;;;22.02;14.98;;;6.10;96.50;;;;;;2081140;28;20440;-89
2022/01/23 05:05:25;;;;;;;21.35;15.13;;;6.10;96.50;;;;;;2083916;28;20159;-89
2022/01/23 05:06:30;;;;;;;21.40;15.18;;;6.10;96.50;;;;;;2075316;28;20034;-89
2022/01/23 05:07:31;;;;;;;23.17;15.20;;;6.10;96.50;;;;;;2074576;28;20108;-88
2022/01/23 05:08:34;;;;;;;22.38;15.52;;;6.10;96.50;;;;;;2081068;28;20087;-89
2022/01/23 05:09:35;;;;;;;21.48;14.38;;;6.10;96.60;;;;;;2082868;28;20045;-89
2022/01/23 05:10:36;;;;;;;21.80;15.30;;;6.10;96.60;;;;;;2088974;28;20525;-89
2022/01/23 05:11:43;;;;;;;21.38;14.98;;;6.10;96.60;;;;;;2085134;28;22462;-89
2022/01/23 05:12:44;;;;;;;20.77;14.45;;;6.10;96.60;;;;;;2095333;28;20053;-89
2022/01/23 05:13:45;;;;;;;21.67;15.13;;;6.10;96.60;;;;;;2095585;28;20037;-89
2022/01/23 05:14:48;;;;;;;20.90;14.95;;;6.10;96.60;;;;;;2087201;28;20097;-88
2022/01/23 05:15:49;;;;;;;20.63;15.18;;;6.10;96.60;;;;;;2085060;28;20404;-89
2022/01/23 05:16:49;;;;;;;22.23;14.32;;;6.10;96.60;;;;;;2090812;28;20113;-89
2022/01/23 05:17:50;;;;;;;21.27;14.60;;;6.10;96.60;;;;;;2093252;28;20037;-89
2022/01/23 05:18:53;;;;;;;22.65;15.02;;;6.10;96.70;;;;;;2093354;28;20036;-89
2022/01/23 05:19:54;;;;;;;20.67;14.13;;;6.10;96.70;;;;;;2095687;28;20047;-88
2022/01/23 05:21:09;;;;;;;21.17;14.65;;;6.10;96.70;;;;;;2090853;28;20033;-89
2022/01/23 05:22:27;;;;;;;19.33;13.77;;;6.10;96.70;;;;;;2090612;28;20132;-89
2022/01/23 05:23:28;;;;;;;20.27;14.02;;;6.10;96.60;;;;;;2091495;28;20037;-89
2022/01/23 05:24:35;;;;;;;18.88;13.40;;;6.10;96.60;;;;;;2081032;28;20064;-89
2022/01/23 05:25:37;;;;;;;19.63;13.10;;;6.10;96.60;;;;;;2096174;28;20546;-89
2022/01/23 05:26:43;;;;;;;19.08;13.48;;;6.10;96.60;;;;;;2099070;28;20127;-89
2022/01/23 05:27:45;;;;;;;20.65;14.30;;;6.10;96.60;;;;;;2099006;28;20090;-89
2022/01/23 05:28:46;;;;;;;20.05;14.05;;;6.10;96.70;;;;;;2094099;28;20182;-89
2022/01/23 05:29:47;;;;;;;20.98;14.10;;;6.10;96.70;;;;;;2097820;28;20033;-88
2022/01/23 05:30:48;;;;;;;24.27;15.82;;;6.10;96.70;;;;;;2085788;28;20522;-89
2022/01/23 05:31:50;;;;;;;21.23;15.15;;;6.10;96.70;;;;;;2080051;28;20033;-88
2022/01/23 05:32:52;;;;;;;20.92;14.13;;;6.10;96.70;;;;;;2089659;28;20037;-89
2022/01/23 05:33:53;;;;;;;20.58;14.30;;;6.00;96.70;;;;;;2098409;28;20090;-89
2022/01/23 05:34:55;;;;;;;21.63;14.90;;;6.00;96.70;;;;;;2084469;28;20029;-89
2022/01/23 05:35:55;;;;;;;20.45;14.63;;;6.00;96.70;;;;;;2082721;28;20041;-89
2022/01/23 05:36:56;;;;;;;21.48;14.90;;;6.00;96.70;;;;;;2091288;28;20083;-88
2022/01/23 05:37:57;;;;;;;20.77;14.48;;;6.00;96.70;;;;;;2091377;28;20033;-89
2022/01/23 05:38:58;;;;;;;22.35;15.05;;;6.00;96.70;;;;;;2098895;28;20068;-89
2022/01/23 05:39:59;;;;;;;21.33;15.05;;;6.00;96.70;;;;;;2088497;28;20475;-89
2022/01/23 05:41:01;;;;;;;19.85;14.10;;;6.00;96.70;;;;;;2082555;28;20175;-89
2022/01/23 05:42:09;;;;;;;21.60;14.43;;;6.00;96.70;;;;;;2094290;28;20124;-88
2022/01/23 05:43:10;;;;;;;20.48;13.65;;;6.00;96.80;;;;;;2082707;28;20478;-89
2022/01/23 05:44:11;;;;;;;20.00;13.60;;;6.00;96.70;;;;;;2086277;28;20045;-89
2022/01/23 05:45:12;;;;;;;18.90;13.38;;;5.90;96.70;;;;;;2092757;28;20128;-89
2022/01/23 05:46:13;;;;;;;20.23;14.07;;;6.00;96.80;;;;;;2099042;28;20458;-88
2022/01/23 05:47:14;;;;;;;20.02;13.73;;;6.00;96.80;;;;;;2092082;28;20037;-89
2022/01/23 05:48:16;;;;;;;18.45;12.73;;;6.00;96.80;;;;;;2090771;28;20029;-89
2022/01/23 05:49:17;;;;;;;19.48;13.40;;;6.00;96.80;;;;;;2096752;28;20047;-89
2022/01/23 05:50:17;;;;;;;19.67;13.60;;;5.90;96.80;;;;;;2101844;28;20028;-89
2022/01/23 05:51:18;;;;;;;18.80;13.45;;;6.00;96.80;;;;;;2098813;28;20090;-89
2022/01/23 05:52:19;;;;;;;18.17;12.45;;;5.90;96.80;;;;;;2086825;28;20097;-88
2022/01/23 05:53:19;;;;;;;18.60;13.00;;;5.90;96.70;;;;;;2090608;28;20458;-89
2022/01/23 05:54:20;;;;;;;19.70;13.20;;;5.90;96.70;;;;;;2088946;28;20073;-89
2022/01/23 05:55:21;;;;;;;18.17;12.45;;;5.90;96.80;;;;;;2090757;28;20095;-88
2022/01/23 05:56:22;;;;;;;18.48;11.85;;;5.90;96.80;;;;;;2082376;28;20056;-89
2022/01/23 05:57:23;;;;;;;17.75;12.25;;;5.90;96.80;;;;;;2074302;28;20049;-89
2022/01/23 05:58:23;;;;;;;16.88;12.07;;;5.90;96.80;;;;;;2082064;28;20042;-89
2022/01/23 05:59:24;;;;;;;18.00;12.43;;;5.90;96.80;;;;;;2079082;28;20045;-89
2022/01/23 06:00:25;;;;;;;17.10;11.70;;;5.90;96.80;;;;;;2085052;28;20041;-88
2022/01/23 06:01:25;;;;;;;15.18;10.57;;;5.90;97.10;;;;;;2087579;28;20037;-89
2022/01/23 06:02:26;;;;;;;16.50;11.15;;;5.90;96.80;;;;;;2088737;28;20523;-89
2022/01/23 06:03:26;;;;;;;16.50;11.10;;;5.90;96.80;;;;;;2092916;28;20123;-88
2022/01/23 06:04:27;;;;;;;15.35;10.75;;;5.90;96.80;;;;;;2090564;28;20087;-88
2022/01/23 06:05:28;;;;;;;15.32;10.57;;;5.90;96.80;;;;;;2082015;28;20460;-89
2022/01/23 06:06:28;;;;;;;15.07;10.05;;;5.90;96.80;;;;;;2098138;28;20120;-89
2022/01/23 06:07:29;;;;;;;14.45;10.07;;;5.90;96.90;;;;;;2089858;28;20037;-89
2022/01/23 06:08:30;;;;;;;14.68;10.30;;;5.90;96.90;;;;;;2090474;28;20040;-89
2022/01/23 06:09:30;;;;;;;13.75;9.35;;;5.90;96.90;;;;;;2097753;28;20037;-88
2022/01/23 06:10:46;;;;;;;14.05;9.60;;;5.90;96.90;;;;;;2107102;28;20397;-89
2022/01/23 06:11:47;;;;;;;13.82;9.40;;;5.90;96.90;;;;;;2106540;28;20091;-89
2022/01/23 06:12:48;;;;;;;14.02;9.50;;;5.90;96.90;;;;;;2106655;28;20418;-89
2022/01/23 06:13:49;;;;;;;12.23;8.45;;;5.90;96.90;;;;;;2089606;28;20045;-89
2022/01/23 06:14:49;;;;;;;13.27;9.30;;;5.90;96.90;;;;;;2082195;28;20034;-89
2022/01/23 06:15:51;;;;;;;12.68;8.73;;;5.90;96.90;;;;;;2082311;28;20421;-89
2022/01/23 06:16:52;;;;;;;13.57;8.88;;;5.90;96.80;;;;;;2080420;28;20029;-89
2022/01/23 06:17:52;;;;;;;13.13;8.57;;;6.00;96.90;;;;;;2086174;28;20041;-89
2022/01/23 06:18:53;;;;;;;11.90;8.18;;;5.90;96.80;;;;;;2090123;28;20033;-89
2022/01/23 06:19:53;;;;;;;12.43;8.45;;;5.90;96.80;;;;;;2089506;28;20088;-89
2022/01/23 06:20:54;;;;;;;12.77;8.50;;;6.00;97.10;;;;;;2083781;28;20026;-89
2022/01/23 06:21:55;;;;;;;12.73;8.57;;;6.00;96.80;;;;;;2091178;28;20044;-89
2022/01/23 06:22:55;;;;;;;13.43;9.02;;;6.00;97.10;;;;;;2104057;28;20514;-89
2022/01/23 06:24:08;;;;;;;11.80;8.15;;;6.00;96.80;;;;;;2086861;28;20499;-88
2022/01/23 06:25:12;;;;;;;12.40;8.02;;;6.00;96.80;;;;;;2092173;28;20048;-89
2022/01/23 06:26:12;;;;;;;12.52;8.35;;;6.00;96.80;;;;;;2099089;28;20086;-88
2022/01/23 06:27:13;;;;;;;13.02;9.10;;;6.00;96.80;;;;;;2083430;28;20383;-89
2022/01/23 06:28:35;;;;;;;12.40;8.25;;;6.00;96.80;;;;;;2097842;28;20048;-89
2022/01/23 06:29:36;;;;;;;12.77;8.02;;;6.00;96.80;;;;;;2089214;28;20533;-89
2022/01/23 06:30:40;;;;;;;12.30;7.90;;;6.00;96.80;;;;;;2090254;28;20037;-88
2022/01/23 06:31:42;;;;;;;11.90;8.13;;;6.00;96.80;;;;;;2088656;28;20474;-89
2022/01/23 06:32:42;;;;;;;12.02;8.30;;;6.00;96.80;;;;;;2090440;28;20517;-89
2022/01/23 06:33:43;;;;;;;13.32;8.98;;;6.00;96.80;;;;;;2087424;28;20116;-88
2022/01/23 06:34:44;;;;;;;13.05;8.32;;;6.00;96.80;;;;;;2081576;28;20040;-88
2022/01/23 06:35:44;;;;;;;13.02;8.82;;;6.00;96.80;;;;;;2106577;28;20083;-88
2022/01/23 06:36:49;;;;;;;11.90;8.27;;;6.00;96.80;;;;;;2105175;28;20028;-88
2022/01/23 06:37:49;;;;;;;12.07;8.30;;;6.00;96.80;;;;;;2081673;28;20029;-89
2022/01/23 06:38:50;;;;;;;12.88;8.65;;;6.00;96.80;;;;;;2088929;28;20033;-88
2022/01/23 06:39:51;;;;;;;14.27;9.38;;;6.00;96.80;;;;;;2097937;28;20052;-88
2022/01/23 06:40:51;;;;;;;12.63;8.50;;;6.00;96.80;;;;;;2090417;28;20028;-89
2022/01/23 06:41:52;;;;;;;13.57;9.05;;;6.00;96.80;;;;;;2073762;28;20045;-89
2022/01/23 06:42:53;;;;;;;12.88;8.80;;;6.00;96.80;;;;;;2067988;28;20038;-89
2022/01/23 06:43:53;;;;;;;12.45;8.45;;;6.00;96.80;;;;;;2090908;28;20041;-89
2022/01/23 06:44:54;;;;;;;14.07;9.15;;;6.00;96.80;;;;;;2091784;28;20063;-89
2022/01/23 06:45:54;;;;;;;12.52;8.70;;;6.00;96.80;;;;;;2097449;28;20040;-89
2022/01/23 06:46:56;;;;;;;14.35;9.55;;;6.00;96.80;;;;;;2097902;28;20163;-89
2022/01/23 06:47:56;;;;;;;13.18;8.68;;;6.00;96.80;;;;;;2097048;28;20476;-89
2022/01/23 06:48:57;;;;;;;12.82;8.70;;;6.00;96.80;;;;;;2089377;28;20072;-89
2022/01/23 06:49:58;;;;;;;13.88;9.30;;;6.00;96.80;;;;;;2090034;28;20053;-89
2022/01/23 06:50:59;;;;;;;13.38;9.23;;;6.00;96.80;;;;;;2098993;28;20055;-88
2022/01/23 06:51:59;;;;;;;13.95;9.05;;;6.00;96.80;;;;;;2094369;28;20526;-88
2022/01/23 06:53:00;;;;;;;13.57;9.50;;;6.00;96.80;;;;;;2090621;28;20124;-89
2022/01/23 06:54:01;;;;;;;13.90;9.30;;;6.00;96.80;;;;;;2080196;28;20042;-88
2022/01/23 06:55:01;;;;;;;12.90;8.98;;;6.00;96.80;;;;;;2088363;28;20136;-88
2022/01/23 06:56:02;;;;;;;13.98;9.73;;;6.00;96.80;;;;;;2092387;28;20040;-88
2022/01/23 06:57:03;;;;;;;14.25;9.80;;;6.00;96.80;;;;;;2081228;28;20076;-88
2022/01/23 06:58:04;;;;;;;15.38;9.85;;;6.00;96.80;;;;;;2089465;28;20434;-89
2022/01/23 06:59:04;;;;;;;14.02;9.68;;;6.00;96.80;;;;;;2098717;28;20041;-88
2022/01/23 07:00:06;;;;;;;13.75;9.10;;;6.00;96.80;;;;;;2082922;28;20050;-88
2022/01/23 07:01:07;;;;;;;12.88;9.48;;;6.00;96.80;;;;;;2082254;28;20026;-88
2022/01/23 07:02:09;;;;;;;13.75;9.35;;;6.00;96.80;;;;;;2085413;28;20068;-89
2022/01/23 07:03:10;;;;;;;13.93;9.57;;;6.00;96.80;;;;;;2082182;28;20042;-89
2022/01/23 07:04:11;;;;;;;14.40;9.85;;;6.00;96.80;;;;;;2090708;28;20040;-89
2022/01/23 07:05:11;;;;;;;13.32;8.65;;;6.00;97.00;;;;;;2091759;28;20470;-89
2022/01/23 07:06:12;;;;;;;12.38;8.25;;;6.00;96.80;;;;;;2086955;28;20466;-89
2022/01/23 07:07:13;;;;;;;12.63;8.50;;;6.00;96.80;;;;;;2090353;28;20029;-86
2022/01/23 07:08:13;;;;;;;12.80;8.60;;;6.00;96.80;;;;;;2096106;28;20545;-89
2022/01/23 07:09:14;;;;;;;12.27;8.45;;;6.00;96.80;;;;;;2084380;28;20033;-90
2022/01/23 07:10:16;;;;;;;11.90;8.13;;;6.00;96.80;;;;;;2074870;28;20053;-90
2022/01/23 07:11:16;;;;;;;11.80;7.50;;;6.00;96.80;;;;;;2082212;28;20034;-90
2022/01/23 07:12:17;;;;;;;11.57;7.88;;;6.00;96.80;;;;;;2090816;28;20406;-90
2022/01/23 07:13:18;;;;;;;11.45;7.95;;;6.00;96.80;;;;;;2098363;28;20039;-89
2022/01/23 07:14:19;;;;;;;10.80;7.60;;;6.00;96.80;;;;;;2094458;28;20044;-89
2022/01/23 07:15:20;;;;;;;11.32;7.72;;;6.00;96.80;;;;;;2090335;28;20549;-89
2022/01/23 07:16:20;;;;;;;12.05;7.97;;;6.00;96.80;;;;;;2084466;28;20114;-89
2022/01/23 07:17:21;;;;;;;11.02;8.13;;;6.00;96.80;;;;;;2077259;28;20044;-88
2022/01/23 07:18:22;;;;;;;12.80;8.40;;;6.00;96.80;;;;;;2094675;28;20522;-88
2022/01/23 07:19:23;;;;;;;12.32;8.13;;;6.10;96.80;;;;;;2097916;28;20076;-88
2022/01/23 07:20:24;;;;;;;10.68;7.63;;;6.00;96.80;;;;;;2097244;28;20029;-88
2022/01/23 07:21:24;;;;;;;11.23;7.25;;;6.00;96.80;;;;;;2089136;28;20507;-88
2022/01/23 07:22:25;;;;;;;11.32;7.85;;;6.00;96.80;;;;;;2084534;28;20044;-88
2022/01/23 07:23:26;;;;;;;11.15;7.80;;;6.10;96.80;;;;;;2081434;28;20040;-88
2022/01/23 07:24:27;;;;;;;10.75;7.45;;;6.00;96.80;;;;;;2089307;28;20040;-89
2022/01/23 07:25:27;;;;;;;11.20;7.45;;;6.00;96.80;;;;;;2089320;28;20043;-89
2022/01/23 07:26:28;;;;;;;11.32;7.47;;;6.00;96.80;;;;;;2095612;28;20044;-88
2022/01/23 07:27:34;;;;;;;10.88;7.55;;;6.10;96.80;;;;;;2099067;28;20040;-88
2022/01/23 07:28:39;;;;;;;11.43;7.45;;;6.00;96.80;;;;;;2094793;28;20071;-87
2022/01/23 07:29:42;;;;;;;12.38;8.10;;;6.00;96.80;;;;;;2080644;28;20037;-86
2022/01/23 07:30:56;;;;;;;11.38;7.60;;;6.10;96.80;;;;;;2074279;28;20129;-86
2022/01/23 07:31:59;;;;;;;11.85;7.60;;;6.00;96.80;;;;;;2087519;28;20041;-87
2022/01/23 07:33:00;;;;;;;11.23;7.57;;;6.10;96.80;;;;;;2081823;28;20530;-87
2022/01/23 07:34:08;;;;;;;11.93;8.18;;;6.00;96.70;;;;;;2081845;28;20052;-88
2022/01/23 07:35:09;;;;;;;12.20;8.13;;;6.00;96.70;;;;;;2082385;28;20583;-88
2022/01/23 07:36:10;;;;;;;11.45;8.05;;;6.00;96.70;;;;;;2081179;28;20521;-88
2022/01/23 07:37:12;;;;;;;13.07;8.45;;;6.00;96.70;;;;;;2089671;28;20083;-88
2022/01/23 07:38:16;;;;;;;11.48;7.75;;;6.00;96.70;;;;;;2089878;28;20033;-88
2022/01/23 07:39:17;;;;;;;11.82;8.07;;;6.00;96.70;;;;;;2089527;28;20049;-88
2022/01/23 07:40:19;;;;;;;11.15;7.72;;;6.00;96.70;;;;;;2081328;28;20124;-87
2022/01/23 07:41:20;;;;;;;10.75;7.63;;;6.00;96.70;;;;;;2081375;28;20029;-88
2022/01/23 07:42:21;;;;;;;11.32;7.40;;;6.00;96.70;;;;;;2077988;28;20036;-87
2022/01/23 07:43:21;;;;;;;12.10;8.30;;;6.00;96.70;;;;;;2078294;28;20285;-87
2022/01/23 07:44:22;;;;;;;13.40;9.13;;;6.00;96.70;;;;;;2089681;28;20509;-87